Portada
METAR-TAF:

METAR-TAF

Aeropuertos :

Aeropuerto de Hamburgo Finkenwerder

Finkenwerder, Alemania

latitud: 53-32N, longitud: 009-50E, altitud: 5 m

Observación

El informe se hizo hace 35 minutos, a las 00:50 UTC
Viento 9 kt del norte-noroeste
Temperatura 10°C
Humedad 71%
Presión 1033 hPa
Visibilidad 10 km o más

METAR: EDHI 280050Z AUTO 34009KT 9999 // NCD 10/05 Q1033

Hora: 03:25 (01:25 UTC)

Pronóstico

El informe se hizo hace 8 horas y 25 minutos, a las 17:00 UTC
Pronóstico válido del 27 a las 18 UTC al 27 a las 21 UTC
Viento 11 kt del noroeste
Visibilidad 10 km o más
sin nubes por debajo de 1500 m y sin presencia de cumulonimbus.
Evolucionando progresivamente
del 27 a las 19 UTC al 27 a las 21 UTC
Viento 6 kt del norte-noroeste

TAF: EDHI 271700Z 2718/2721 32011KT CAVOK BECMG 2719/2721 33006KT

Observaciones y pronósticos meteorológicos de más de 4000 aeropuertos (mensajes METAR y TAF).

Los puntos amarillos y rojos representan las estaciones disponibles.

Ponga el ratón en el punto deseado para ver el nombre de la estación.

Haga clic para ver las observaciones y los pronósticos meteorológicos.

Para cambiar el mapa : haga clic en los botones verdes con una cruz de color negro para hacer un zoom, en el botón verde con un guión para alejar o en las flechas verdes para mapas adyacentes.


METAR-TAF: